createdAt,value
2022-12-19T00:01:58.416Z,3.81
2022-12-19T00:04:26.242Z,3.78
2022-12-19T00:06:54.101Z,3.81
2022-12-19T00:09:21.811Z,3.78
2022-12-19T00:11:49.575Z,3.80
2022-12-19T00:14:18.639Z,3.82
2022-12-19T00:16:46.768Z,3.81
2022-12-19T00:19:15.541Z,3.83
2022-12-19T00:21:43.221Z,3.82
2022-12-19T00:24:20.474Z,3.82
2022-12-19T00:26:49.579Z,3.80
2022-12-19T00:29:18.750Z,3.81
2022-12-19T00:31:46.990Z,3.82
2022-12-19T00:34:14.814Z,3.82
2022-12-19T00:36:42.530Z,3.82
2022-12-19T00:39:11.651Z,3.84
2022-12-19T00:41:41.674Z,3.83
2022-12-19T00:44:12.618Z,3.85
2022-12-19T00:46:41.934Z,3.86
2022-12-19T00:49:09.641Z,3.86
2022-12-19T00:51:38.583Z,3.85
2022-12-19T00:54:07.443Z,3.85
2022-12-19T00:56:38.226Z,3.79
2022-12-19T00:59:06.225Z,3.85
2022-12-19T01:01:36.517Z,3.84
2022-12-19T01:06:54.690Z,3.84
2022-12-19T01:09:28.805Z,3.86
2022-12-19T01:12:14.358Z,3.88
2022-12-19T01:14:42.003Z,3.87
2022-12-19T01:17:09.666Z,3.87
2022-12-19T01:19:43.791Z,3.87
2022-12-19T01:22:12.609Z,3.85
2022-12-19T01:24:40.777Z,3.88
2022-12-19T01:27:08.784Z,3.89
2022-12-19T01:29:37.650Z,3.90
2022-12-19T01:32:20.417Z,3.89
2022-12-19T01:34:49.453Z,3.90
2022-12-19T01:37:18.722Z,3.90
2022-12-19T01:39:46.458Z,3.90
2022-12-19T01:42:16.497Z,3.91
2022-12-19T01:45:28.933Z,3.92
2022-12-19T01:48:12.408Z,3.91
2022-12-19T01:51:00.636Z,3.91
2022-12-19T01:53:49.010Z,3.93
2022-12-19T01:56:19.055Z,3.91
2022-12-19T01:58:47.475Z,3.93
2022-12-19T02:01:17.326Z,3.96
2022-12-19T02:03:46.224Z,3.96
2022-12-19T02:06:17.154Z,3.97
2022-12-19T02:08:47.176Z,3.95
2022-12-19T02:11:14.961Z,3.97
2022-12-19T02:13:44.177Z,4.01
2022-12-19T02:16:26.388Z,4.00
2022-12-19T02:19:10.433Z,3.99
2022-12-19T02:21:56.331Z,3.99
2022-12-19T02:25:00.055Z,4.02
2022-12-19T02:27:48.159Z,4.02
2022-12-19T02:30:18.706Z,4.03
2022-12-19T02:32:57.394Z,4.03
2022-12-19T02:35:32.058Z,4.04
2022-12-19T02:38:13.311Z,4.04
2022-12-19T02:40:44.203Z,4.02
2022-12-19T02:43:15.978Z,4.06
2022-12-19T02:45:46.214Z,4.05
2022-12-19T02:48:19.244Z,4.07
2022-12-19T02:50:50.440Z,4.07
2022-12-19T02:53:23.999Z,4.07
2022-12-19T02:56:10.426Z,4.06
2022-12-19T02:58:50.957Z,3.99
2022-12-19T03:01:31.577Z,4.07
2022-12-19T03:04:12.309Z,4.09
2022-12-19T03:06:47.244Z,4.11
2022-12-19T03:09:23.701Z,4.11
2022-12-19T03:11:58.598Z,4.13
2022-12-19T03:14:27.912Z,4.11
2022-12-19T03:16:55.779Z,4.11
2022-12-19T03:19:25.564Z,4.12
2022-12-19T03:21:53.877Z,4.11
2022-12-19T03:24:21.583Z,4.13
2022-12-19T03:26:54.122Z,4.14
2022-12-19T03:29:26.557Z,4.15
2022-12-19T03:31:56.322Z,4.15
2022-12-19T03:34:29.649Z,4.15
2022-12-19T03:37:02.500Z,4.17
2022-12-19T03:39:31.891Z,4.17
2022-12-19T03:42:19.736Z,4.17
2022-12-19T03:44:51.129Z,4.21
2022-12-19T03:47:23.267Z,4.21
2022-12-19T03:49:52.523Z,4.20
2022-12-19T03:52:29.998Z,4.21
2022-12-19T03:55:04.288Z,4.22
2022-12-19T03:57:39.018Z,4.22
2022-12-19T04:00:09.545Z,4.23
2022-12-19T04:02:41.025Z,4.21
2022-12-19T04:05:13.197Z,4.24
2022-12-19T04:07:41.792Z,4.24
2022-12-19T04:10:14.860Z,4.25
2022-12-19T04:12:46.669Z,4.27
2022-12-19T04:15:15.595Z,4.28
2022-12-19T04:17:48.361Z,4.29
2022-12-19T04:20:19.822Z,4.29
2022-12-19T04:22:53.953Z,4.31
2022-12-19T04:25:29.483Z,4.34
2022-12-19T04:28:01.961Z,4.34
2022-12-19T04:30:29.854Z,4.35
2022-12-19T04:33:04.297Z,4.35
2022-12-19T04:35:33.998Z,4.34
2022-12-19T04:38:01.719Z,4.32
2022-12-19T04:40:29.395Z,4.35
2022-12-19T04:42:57.158Z,4.37
2022-12-19T04:45:24.798Z,4.39
2022-12-19T04:47:52.855Z,4.39
2022-12-19T04:50:20.491Z,4.41
2022-12-19T04:52:53.231Z,4.41
2022-12-19T04:55:23.355Z,4.41
2022-12-19T04:57:51.036Z,4.41
2022-12-19T05:00:18.884Z,4.42
2022-12-19T05:02:46.783Z,4.42
2022-12-19T05:05:14.627Z,4.49
2022-12-19T05:07:42.295Z,4.49
2022-12-19T05:10:11.438Z,4.52
2022-12-19T05:12:39.108Z,4.50
2022-12-19T05:15:07.923Z,4.52
2022-12-19T05:17:35.765Z,4.53
2022-12-19T05:20:03.481Z,4.53
2022-12-19T05:22:31.154Z,4.55
2022-12-19T05:24:58.860Z,4.55
2022-12-19T05:27:27.907Z,4.55
2022-12-19T05:29:55.604Z,4.56
2022-12-19T05:32:23.455Z,4.56
2022-12-19T05:34:51.132Z,4.58
2022-12-19T05:37:18.772Z,4.62
2022-12-19T05:39:46.440Z,4.62
2022-12-19T05:42:14.137Z,4.63
2022-12-19T05:44:43.192Z,4.63
2022-12-19T05:47:10.915Z,4.66
2022-12-19T05:49:42.215Z,4.92
2022-12-19T05:52:09.891Z,4.85
2022-12-19T05:54:37.697Z,5.00
2022-12-19T05:57:05.319Z,5.17
2022-12-19T05:59:33.007Z,5.08
2022-12-19T06:02:02.177Z,5.12
2022-12-19T06:04:30.762Z,5.08
2022-12-19T06:06:58.450Z,5.12
2022-12-19T06:09:26.623Z,5.27
2022-12-19T06:11:54.314Z,5.42
2022-12-19T06:14:22.145Z,5.43
2022-12-19T06:16:50.881Z,5.52
2022-12-19T06:19:23.128Z,5.59
2022-12-19T06:21:50.904Z,5.69
2022-12-19T06:24:18.745Z,5.89
2022-12-19T06:26:46.443Z,6.02
2022-12-19T06:29:14.169Z,6.20
2022-12-19T06:31:41.904Z,6.41
2022-12-19T06:34:10.647Z,6.63
2022-12-19T06:36:39.753Z,6.76
2022-12-19T06:39:07.477Z,6.88
2022-12-19T06:41:52.816Z,7.01
2022-12-19T06:44:20.475Z,6.99
2022-12-19T06:46:48.192Z,7.01
2022-12-19T06:49:16.039Z,6.93
2022-12-19T06:51:45.120Z,6.90
2022-12-19T06:54:13.845Z,6.91
2022-12-19T06:56:43.792Z,6.70
2022-12-19T06:59:14.692Z,6.46
2022-12-19T07:01:54.129Z,6.33
2022-12-19T07:04:26.094Z,6.55
2022-12-19T07:06:55.749Z,6.34
2022-12-19T07:09:23.519Z,6.28
2022-12-19T07:11:51.129Z,6.19
2022-12-19T07:14:19.096Z,6.07
2022-12-19T07:16:48.427Z,6.00
2022-12-19T07:19:16.399Z,6.03
2022-12-19T07:21:44.317Z,6.03
2022-12-19T07:24:15.760Z,5.96
2022-12-19T07:26:44.429Z,5.96
2022-12-19T07:29:12.787Z,5.94
2022-12-19T07:31:40.868Z,5.91
2022-12-19T07:34:08.611Z,5.92
2022-12-19T07:36:36.288Z,5.87
2022-12-19T07:39:04.116Z,5.80
2022-12-19T07:41:33.476Z,5.78
2022-12-19T07:44:01.489Z,5.78
2022-12-19T07:46:30.115Z,5.77
2022-12-19T07:49:01.099Z,5.84
2022-12-19T07:51:29.611Z,5.91
2022-12-19T07:53:57.399Z,5.83
2022-12-19T07:56:25.059Z,5.88
2022-12-19T07:58:54.284Z,5.86
2022-12-19T08:01:22.827Z,5.90
2022-12-19T08:03:51.151Z,5.83
2022-12-19T08:06:18.900Z,5.82
2022-12-19T08:08:46.757Z,5.85
2022-12-19T08:11:17.824Z,5.80
2022-12-19T08:13:46.985Z,5.84
2022-12-19T08:16:16.492Z,5.86
2022-12-19T08:18:44.243Z,5.84
2022-12-19T08:21:12.012Z,5.87
2022-12-19T08:23:39.796Z,5.94
2022-12-19T08:26:09.220Z,5.93
2022-12-19T08:28:38.060Z,5.88
2022-12-19T08:31:08.045Z,5.85
2022-12-19T08:33:37.769Z,5.83
2022-12-19T08:36:06.300Z,5.81
2022-12-19T08:38:34.083Z,5.79
2022-12-19T08:41:01.809Z,5.78
2022-12-19T08:43:30.427Z,5.79
2022-12-19T08:45:58.324Z,5.80
2022-12-19T08:48:26.297Z,5.85
2022-12-19T08:50:57.390Z,6.00
2022-12-19T08:53:26.892Z,6.16
2022-12-19T08:55:56.920Z,6.33
2022-12-19T08:58:24.992Z,6.50
2022-12-19T09:00:57.546Z,6.66
2022-12-19T09:03:26.860Z,6.82
2022-12-19T09:06:09.255Z,6.99
2022-12-19T09:08:42.153Z,7.17
2022-12-19T09:11:11.417Z,7.34
2022-12-19T09:13:40.615Z,7.48
2022-12-19T09:16:11.794Z,7.57
2022-12-19T09:18:45.176Z,7.65
2022-12-19T09:21:18.563Z,7.71
2022-12-19T09:23:49.837Z,7.76
2022-12-19T09:26:18.360Z,7.79
2022-12-19T09:28:48.085Z,7.84
2022-12-19T09:31:17.959Z,7.86
2022-12-19T09:33:46.714Z,7.87
2022-12-19T09:36:16.444Z,7.91
2022-12-19T09:38:47.086Z,7.93
2022-12-19T09:41:37.035Z,7.95
2022-12-19T09:44:14.373Z,7.97
2022-12-19T09:46:50.969Z,8.01
2022-12-19T09:49:22.537Z,8.04
2022-12-19T09:51:58.298Z,8.08
2022-12-19T09:54:33.432Z,8.11
2022-12-19T09:57:05.222Z,8.03
2022-12-19T09:59:45.946Z,7.92
2022-12-19T10:02:28.851Z,7.74
2022-12-19T10:05:19.687Z,7.56
2022-12-19T10:08:10.310Z,7.43
2022-12-19T10:12:41.098Z,7.30
2022-12-19T10:14:05.640Z,7.19
2022-12-19T10:16:39.840Z,7.12
2022-12-19T10:19:11.374Z,7.07
2022-12-19T10:24:57.559Z,6.97
2022-12-19T10:27:58.570Z,6.96
2022-12-19T10:30:31.226Z,6.94
2022-12-19T10:33:17.471Z,6.92
2022-12-19T10:35:54.777Z,6.91
2022-12-19T10:38:30.095Z,6.87
2022-12-19T10:41:12.015Z,6.90
2022-12-19T10:43:47.800Z,7.05
2022-12-19T10:46:21.377Z,7.21
2022-12-19T10:48:52.486Z,7.40
2022-12-19T10:51:24.701Z,7.59
2022-12-19T10:53:57.370Z,7.77
2022-12-19T10:56:33.382Z,7.90
2022-12-19T10:59:17.838Z,8.04
2022-12-19T11:01:46.067Z,8.17
2022-12-19T11:04:30.178Z,8.32
2022-12-19T11:07:21.427Z,8.46
2022-12-19T11:10:15.883Z,8.53
2022-12-19T11:16:21.270Z,8.57
2022-12-19T11:19:54.520Z,8.60
2022-12-19T11:29:17.150Z,8.62
2022-12-19T11:29:39.798Z,8.68
2022-12-19T11:30:05.173Z,8.72
2022-12-19T11:30:59.581Z,8.71
2022-12-19T11:32:43.578Z,8.78
2022-12-19T11:35:19.789Z,8.78
2022-12-19T11:37:55.480Z,8.79
2022-12-19T11:40:33.928Z,8.84
2022-12-19T11:43:43.355Z,8.88
2022-12-19T11:46:01.849Z,8.92
2022-12-19T11:48:39.660Z,8.92
2022-12-19T11:51:15.839Z,8.93
2022-12-19T11:53:53.389Z,8.97
2022-12-19T11:56:24.763Z,9.00
2022-12-19T11:58:55.767Z,8.93
2022-12-19T12:01:42.708Z,8.79
2022-12-19T12:04:52.200Z,8.74
2022-12-19T12:08:11.600Z,8.58
2022-12-19T12:14:39.756Z,8.42
2022-12-19T12:22:14.696Z,8.24
2022-12-19T12:27:14.825Z,8.14
2022-12-19T12:31:07.269Z,8.09
2022-12-19T12:31:40.506Z,7.94
2022-12-19T12:31:40.802Z,7.96
2022-12-19T12:32:04.832Z,8.04
2022-12-19T12:35:33.436Z,8.26
2022-12-19T12:35:46.218Z,8.26
2022-12-19T12:40:04.159Z,8.62
2022-12-19T12:42:43.856Z,8.78
2022-12-19T12:45:20.424Z,8.90
2022-12-19T12:47:50.301Z,9.09
2022-12-19T12:50:20.516Z,9.24
2022-12-19T12:52:53.463Z,9.31
2022-12-19T12:55:27.151Z,9.45
2022-12-19T12:57:54.980Z,9.54
2022-12-19T13:00:26.550Z,9.54
2022-12-19T13:02:59.127Z,9.52
2022-12-19T13:05:36.887Z,9.52
2022-12-19T13:08:26.731Z,9.29
2022-12-19T13:10:55.456Z,9.10
2022-12-19T13:13:50.677Z,9.03
2022-12-19T13:16:53.008Z,9.01
2022-12-19T13:19:27.945Z,8.97
2022-12-19T13:22:18.467Z,8.80
2022-12-19T13:24:50.719Z,8.70
2022-12-19T13:27:40.552Z,8.61
2022-12-19T13:30:17.335Z,8.53
2022-12-19T13:33:07.776Z,8.65
2022-12-19T13:39:08.275Z,8.61
2022-12-19T13:39:49.939Z,8.70
2022-12-19T13:41:46.251Z,8.59
2022-12-19T13:44:14.278Z,8.63
2022-12-19T13:46:43.895Z,8.57
2022-12-19T13:49:15.251Z,8.64
2022-12-19T13:51:50.676Z,8.63
2022-12-19T13:54:26.914Z,8.78
2022-12-19T13:56:56.608Z,8.66
2022-12-19T13:59:27.824Z,8.70
2022-12-19T14:01:56.397Z,8.60
2022-12-19T14:04:29.495Z,8.55
2022-12-19T14:07:02.306Z,8.46
2022-12-19T14:11:41.048Z,8.38
2022-12-19T14:13:57.369Z,8.45
2022-12-19T14:15:34.895Z,8.52
2022-12-19T14:18:08.265Z,8.69
2022-12-19T14:22:05.442Z,8.60
2022-12-19T14:24:10.172Z,8.55
2022-12-19T14:28:18.228Z,8.45
2022-12-19T14:30:19.325Z,8.56
2022-12-19T14:33:40.931Z,8.71
2022-12-19T14:36:07.383Z,8.76
2022-12-19T14:39:19.764Z,8.58
2022-12-19T14:41:08.180Z,8.54
2022-12-19T14:43:59.130Z,8.52
2022-12-19T14:52:51.629Z,8.55
2022-12-19T14:53:52.694Z,8.47
2022-12-19T14:54:44.052Z,8.49
2022-12-19T14:56:15.899Z,8.48
2022-12-19T14:58:53.746Z,8.53
2022-12-19T15:01:23.940Z,8.55
2022-12-19T15:04:48.981Z,8.50
2022-12-19T15:07:06.767Z,8.50
2022-12-19T15:11:00.783Z,8.55
2022-12-19T15:14:51.498Z,8.56
2022-12-19T15:15:41.298Z,8.63
2022-12-19T15:18:21.162Z,8.57
2022-12-19T15:20:50.698Z,8.63
2022-12-19T15:23:22.261Z,8.81
2022-12-19T15:26:08.005Z,8.97
2022-12-19T15:28:40.389Z,9.07
2022-12-19T15:31:19.309Z,9.26
2022-12-19T15:34:32.432Z,9.42
2022-12-19T15:36:36.057Z,9.56
2022-12-19T15:39:04.457Z,9.55
2022-12-19T15:41:32.588Z,9.49
2022-12-19T15:44:11.375Z,9.40
2022-12-19T15:46:46.379Z,9.30
2022-12-19T15:49:17.897Z,9.20
2022-12-19T15:51:47.361Z,9.12
2022-12-19T15:54:47.303Z,9.07
2022-12-19T15:57:03.695Z,9.01
2022-12-19T15:59:37.936Z,8.95
2022-12-19T16:02:16.817Z,8.90
2022-12-19T16:04:45.255Z,8.85
2022-12-19T16:07:17.191Z,8.83
2022-12-19T16:09:44.966Z,8.85
2022-12-19T16:12:15.532Z,8.81
2022-12-19T16:14:43.839Z,8.85
2022-12-19T16:17:22.620Z,8.81
2022-12-19T16:19:50.744Z,8.79
2022-12-19T16:22:22.518Z,8.83
2022-12-19T16:24:51.132Z,8.94
2022-12-19T16:27:23.808Z,8.91
2022-12-19T16:29:52.285Z,8.87
2022-12-19T16:32:22.944Z,8.82
2022-12-19T16:34:51.043Z,8.86
2022-12-19T16:37:20.386Z,8.90
2022-12-19T16:39:48.118Z,8.92
2022-12-19T16:42:17.419Z,8.91
2022-12-19T16:44:46.716Z,8.88
2022-12-19T16:47:16.672Z,8.86
2022-12-19T16:49:44.947Z,8.81
2022-12-19T16:52:13.026Z,8.81
2022-12-19T16:54:42.069Z,8.82
2022-12-19T16:57:20.217Z,8.81
2022-12-19T16:59:48.027Z,8.85
2022-12-19T17:02:41.408Z,8.89
2022-12-19T17:05:16.780Z,8.90
2022-12-19T17:07:44.517Z,8.91
2022-12-19T17:10:13.821Z,9.02
2022-12-19T17:12:42.777Z,9.07
2022-12-19T17:15:20.721Z,9.01
2022-12-19T17:17:48.859Z,8.96
2022-12-19T17:20:18.586Z,8.94
2022-12-19T17:22:47.817Z,8.93
2022-12-19T17:25:21.127Z,9.02
2022-12-19T17:27:49.304Z,8.93
2022-12-19T17:30:17.717Z,8.90
2022-12-19T17:32:48.544Z,9.08
2022-12-19T17:35:22.594Z,8.96
2022-12-19T17:37:57.581Z,8.92
2022-12-19T17:40:29.423Z,8.88
2022-12-19T17:42:58.005Z,8.87
2022-12-19T17:45:27.154Z,8.84
2022-12-19T17:48:01.998Z,8.86
2022-12-19T17:50:33.045Z,8.85
2022-12-19T17:53:00.764Z,8.76
2022-12-19T17:55:31.033Z,8.85
2022-12-19T17:57:59.412Z,8.86
2022-12-19T18:00:30.904Z,8.84
2022-12-19T18:03:02.323Z,8.85
2022-12-19T18:05:35.933Z,8.75
2022-12-19T18:08:04.625Z,8.84
2022-12-19T18:10:33.865Z,8.84
2022-12-19T18:13:02.593Z,8.83
2022-12-19T18:15:30.349Z,8.88
2022-12-19T18:17:58.803Z,8.89
2022-12-19T18:20:31.877Z,8.88
2022-12-19T18:23:01.167Z,8.92
2022-12-19T18:25:30.954Z,8.93
2022-12-19T18:28:00.138Z,8.92
2022-12-19T18:30:27.922Z,8.92
2022-12-19T18:32:58.542Z,8.90
2022-12-19T18:35:31.952Z,8.92
2022-12-19T18:38:01.687Z,8.90
2022-12-19T18:40:31.898Z,8.92
2022-12-19T18:43:01.341Z,8.93
2022-12-19T18:45:34.818Z,9.08
2022-12-19T18:48:05.226Z,9.08
2022-12-19T18:50:33.007Z,9.13
2022-12-19T18:53:01.542Z,9.10
2022-12-19T18:55:32.466Z,9.09
2022-12-19T18:58:01.633Z,9.08
2022-12-19T19:00:29.611Z,9.08
2022-12-19T19:03:00.421Z,9.06
2022-12-19T19:05:30.713Z,9.08
2022-12-19T19:07:59.026Z,9.04
2022-12-19T19:10:28.876Z,9.06
2022-12-19T19:12:57.047Z,9.07
2022-12-19T19:15:36.121Z,9.03
2022-12-19T19:18:05.622Z,9.02
2022-12-19T19:20:36.191Z,9.02
2022-12-19T19:23:04.822Z,9.01
2022-12-19T19:25:32.905Z,8.99
2022-12-19T19:28:00.596Z,9.02
2022-12-19T19:30:30.142Z,9.02
2022-12-19T19:33:02.891Z,9.03
2022-12-19T19:35:30.797Z,9.02
2022-12-19T19:38:02.626Z,9.01
2022-12-19T19:40:30.980Z,9.00
2022-12-19T19:42:58.676Z,9.02
2022-12-19T19:45:27.745Z,9.03
2022-12-19T19:47:57.136Z,9.04
2022-12-19T19:50:25.678Z,9.04
2022-12-19T19:52:53.371Z,9.03
2022-12-19T19:55:21.186Z,9.02
2022-12-19T19:57:48.869Z,9.03
2022-12-19T20:00:17.111Z,9.04
2022-12-19T20:02:44.981Z,9.08
2022-12-19T20:05:14.299Z,9.08
2022-12-19T20:07:42.188Z,9.08
2022-12-19T20:10:11.409Z,9.08
2022-12-19T20:12:39.225Z,9.06
2022-12-19T20:15:08.030Z,9.06
2022-12-19T20:17:35.717Z,9.07
2022-12-19T20:20:03.477Z,9.08
2022-12-19T20:22:32.558Z,9.07
2022-12-19T20:25:00.635Z,9.07
2022-12-19T20:27:28.440Z,9.05
2022-12-19T20:29:56.729Z,9.04
2022-12-19T20:32:24.523Z,9.03
2022-12-19T20:34:53.189Z,9.03
2022-12-19T20:37:20.869Z,9.00
2022-12-19T20:39:49.927Z,9.04
2022-12-19T20:42:17.770Z,9.02
2022-12-19T20:44:45.490Z,9.02
2022-12-19T20:47:13.296Z,9.02
2022-12-19T20:49:41.038Z,9.02
2022-12-19T20:52:09.023Z,9.04
2022-12-19T20:54:36.955Z,9.05
2022-12-19T20:57:06.320Z,8.97
2022-12-19T20:59:34.299Z,9.05
2022-12-19T21:02:02.648Z,9.04
2022-12-19T21:04:31.856Z,9.04
2022-12-19T21:06:59.746Z,9.03
2022-12-19T21:09:27.620Z,9.02
2022-12-19T21:11:55.347Z,9.02
2022-12-19T21:14:24.377Z,9.02
2022-12-19T21:16:52.043Z,9.01
2022-12-19T21:19:20.126Z,9.01
2022-12-19T21:21:47.922Z,9.00
2022-12-19T21:24:15.637Z,9.02
2022-12-19T21:26:43.314Z,9.05
2022-12-19T21:29:11.023Z,9.06
2022-12-19T21:31:40.272Z,9.00
2022-12-19T21:34:08.052Z,9.03
2022-12-19T21:36:36.869Z,9.01
2022-12-19T21:39:04.664Z,9.04
2022-12-19T21:41:33.423Z,9.03
2022-12-19T21:44:01.498Z,8.93
2022-12-19T21:46:32.972Z,9.03
2022-12-19T21:49:02.911Z,9.02
2022-12-19T21:51:32.975Z,9.05
2022-12-19T21:54:03.020Z,9.04
2022-12-19T21:56:32.331Z,9.06
2022-12-19T21:59:01.891Z,9.07
2022-12-19T22:01:30.924Z,9.07
2022-12-19T22:03:59.915Z,9.09
2022-12-19T22:06:31.777Z,9.07
2022-12-19T22:09:00.308Z,9.08
2022-12-19T22:11:30.309Z,9.11
2022-12-19T22:14:00.422Z,9.07
2022-12-19T22:16:28.427Z,9.11
2022-12-19T22:18:58.321Z,9.14
2022-12-19T22:21:26.499Z,9.12
2022-12-19T22:23:57.798Z,9.12
2022-12-19T22:26:26.612Z,9.05
2022-12-19T22:28:56.434Z,9.10
2022-12-19T22:31:26.772Z,9.19
2022-12-19T22:33:56.909Z,9.15
2022-12-19T22:36:28.635Z,9.03
2022-12-19T22:38:59.037Z,9.14
2022-12-19T22:41:27.029Z,9.13
2022-12-19T22:43:56.041Z,9.14
2022-12-19T22:46:27.130Z,9.13
2022-12-19T22:48:57.243Z,9.11
2022-12-19T22:51:25.020Z,9.07
2022-12-19T22:53:52.769Z,9.13
2022-12-19T22:56:23.711Z,9.09
2022-12-19T22:58:53.335Z,9.13
2022-12-19T23:01:23.109Z,9.13
2022-12-19T23:03:53.662Z,9.12
2022-12-19T23:06:22.209Z,9.11
2022-12-19T23:08:50.389Z,9.12
2022-12-19T23:11:21.076Z,9.12
2022-12-19T23:13:50.467Z,9.12
2022-12-19T23:16:18.712Z,9.12
2022-12-19T23:18:46.479Z,9.12
2022-12-19T23:21:17.325Z,9.12
2022-12-19T23:23:46.663Z,9.11
2022-12-19T23:26:16.518Z,9.11
2022-12-19T23:28:44.515Z,9.10
2022-12-19T23:31:14.749Z,9.05
2022-12-19T23:33:42.491Z,9.11
2022-12-19T23:36:11.230Z,9.11
2022-12-19T23:38:38.932Z,9.12
2022-12-19T23:41:09.021Z,9.11
2022-12-19T23:43:37.731Z,9.11
2022-12-19T23:46:07.114Z,9.11
2022-12-19T23:48:36.508Z,9.13
2022-12-19T23:51:06.528Z,9.14
2022-12-19T23:53:35.018Z,9.15
2022-12-19T23:56:04.809Z,9.15
2022-12-19T23:58:32.511Z,9.15
